Time;durP1;ratioP1;P1;durP2;ratioP2;P2;SDS_P1;SDS_P2;PMS_P1;PMS_P2;Temp;Humidity;BMP_temperature;BMP_pressure;BME280_temperature;BME280_humidity;BME280_pressure;Samples;Min_cycle;Max_cycle;Signal;HPM_P1;HPM_P2
2022/01/27 00:07:37;;;;;;;28.77;18.80;;;6.90;99.90;;;;;;5054161;28;20421;-64
2022/01/27 00:10:29;;;;;;;31.13;17.63;;;7.00;99.90;;;;;;5053381;28;20484;-70
2022/01/27 00:12:56;;;;;;;31.60;18.40;;;7.00;99.90;;;;;;5033122;28;20189;-65
2022/01/27 00:15:29;;;;;;;31.73;19.90;;;6.70;99.90;;;;;;5015264;28;20477;-64
2022/01/27 00:17:59;;;;;;;32.23;18.67;;;7.00;99.90;;;;;;5033683;28;20755;-64
2022/01/27 00:20:25;;;;;;;38.40;21.47;;;7.00;99.90;;;;;;5032881;28;20448;-64
2022/01/27 00:22:51;;;;;;;29.63;18.40;;;7.00;99.90;;;;;;5033802;28;20879;-64
2022/01/27 00:25:17;;;;;;;32.20;18.40;;;6.90;99.90;;;;;;5032897;28;20430;-64
2022/01/27 00:27:43;;;;;;;30.53;20.70;;;6.90;99.90;;;;;;5033542;28;20253;-65
2022/01/27 00:30:10;;;;;;;30.40;21.37;;;6.90;99.90;;;;;;5032477;28;20309;-65
2022/01/27 00:32:36;;;;;;;28.10;17.70;;;6.80;99.90;;;;;;5016081;28;20449;-64
2022/01/27 00:35:04;;;;;;;32.50;21.47;;;6.40;99.90;;;;;;5033113;28;20418;-68
2022/01/27 00:37:30;;;;;;;31.40;18.50;;;6.70;99.90;;;;;;5032297;28;20462;-64
2022/01/27 00:39:56;;;;;;;32.90;19.23;;;6.70;99.90;;;;;;5033476;28;20417;-64
2022/01/27 00:42:23;;;;;;;34.67;19.77;;;6.60;99.90;;;;;;5032393;28;20909;-64
2022/01/27 00:44:49;;;;;;;31.03;21.03;;;6.40;99.90;;;;;;5033127;28;20673;-64
2022/01/27 00:47:14;;;;;;;38.40;20.80;;;6.70;99.90;;;;;;5014803;28;20494;-64
2022/01/27 00:49:41;;;;;;;31.13;20.63;;;6.60;99.90;;;;;;5033360;28;20344;-64
2022/01/27 00:52:10;;;;;;;31.20;18.40;;;6.60;99.90;;;;;;5014835;28;20655;-71
2022/01/27 00:54:36;;;;;;;34.87;20.87;;;6.50;99.90;;;;;;5032970;28;20423;-64
2022/01/27 01:02:50;;;;;;;33.70;21.80;;;6.50;99.90;;;;;;4998484;28;20241;-65
2022/01/27 01:07:48;;;;;;;33.87;19.80;;;6.40;99.90;;;;;;5015099;28;20564;-65
2022/01/27 01:15:48;;;;;;;34.93;21.87;;;6.50;99.90;;;;;;5051894;28;20207;-65
2022/01/27 01:18:34;;;;;;;35.97;21.73;;;6.50;99.90;;;;;;5051347;28;20457;-65
2022/01/27 01:34:26;;;;;;;32.03;18.75;;;6.40;99.90;;;;;;5051460;28;20316;-65
2022/01/27 01:36:56;;;;;;;32.13;20.00;;;6.40;99.90;;;;;;5052212;28;20170;-65
2022/01/27 01:39:24;;;;;;;35.47;19.55;;;6.20;99.90;;;;;;5051502;28;20594;-65
2022/01/27 01:41:51;;;;;;;38.30;21.60;;;6.50;99.90;;;;;;5052074;28;20538;-65
2022/01/27 01:44:17;;;;;;;35.97;21.67;;;6.40;99.90;;;;;;5038579;28;20430;-65
2022/01/27 01:46:42;;;;;;;35.37;19.43;;;6.40;99.90;;;;;;5032461;28;20171;-65
2022/01/27 01:49:09;;;;;;;32.37;19.77;;;6.40;99.90;;;;;;5031635;28;20458;-70
2022/01/27 01:51:36;;;;;;;31.70;19.33;;;6.30;99.90;;;;;;5031487;28;20183;-65
2022/01/27 01:54:03;;;;;;;29.73;18.85;;;6.30;99.90;;;;;;5031966;28;20923;-65
2022/01/27 01:56:29;;;;;;;33.28;20.60;;;6.40;99.90;;;;;;5013828;28;20249;-65
2022/01/27 01:58:54;;;;;;;34.30;18.83;;;5.90;99.90;;;;;;5039193;28;20265;-65
2022/01/27 02:01:21;;;;;;;30.13;17.47;;;6.40;99.90;;;;;;5051234;28;20244;-65
2022/01/27 02:03:47;;;;;;;31.50;18.13;;;6.20;99.90;;;;;;5052259;28;20630;-65
2022/01/27 02:06:23;;;;;;;34.27;18.83;;;6.30;99.90;;;;;;5051244;28;20387;-65
2022/01/27 02:09:10;;;;;;;29.60;18.67;;;6.00;99.90;;;;;;5051679;28;20464;-65
2022/01/27 02:19:52;;;;;;;30.37;16.93;;;6.30;99.90;;;;;;5051303;28;20175;-65
2022/01/27 02:22:19;;;;;;;28.20;17.70;;;6.30;99.90;;;;;;5050728;28;20459;-65
2022/01/27 02:24:44;;;;;;;32.70;18.25;;;6.50;99.90;;;;;;5051918;28;20203;-65
2022/01/27 02:27:10;;;;;;;33.43;20.03;;;6.30;99.90;;;;;;5033638;28;20182;-71
2022/01/27 02:29:36;;;;;;;29.80;18.33;;;6.40;99.90;;;;;;5051053;28;20215;-65
2022/01/27 02:32:03;;;;;;;31.23;17.57;;;6.40;99.90;;;;;;5017474;28;20182;-65
2022/01/27 02:34:28;;;;;;;27.10;17.17;;;6.50;99.90;;;;;;5050977;28;20415;-65
2022/01/27 02:36:54;;;;;;;28.07;17.83;;;6.40;99.90;;;;;;5051244;28;20774;-65
2022/01/27 02:39:20;;;;;;;30.90;16.70;;;6.60;99.90;;;;;;5050168;28;20437;-65
2022/01/27 02:41:49;;;;;;;26.45;16.48;;;6.60;99.90;;;;;;5051871;28;20417;-65
2022/01/27 02:44:53;;;;;;;30.55;17.70;;;6.10;99.90;;;;;;5050930;28;20175;-66
2022/01/27 02:47:20;;;;;;;25.97;17.07;;;6.40;99.90;;;;;;5035201;28;20665;-65
2022/01/27 02:49:46;;;;;;;31.00;17.57;;;6.70;99.90;;;;;;5051490;28;20802;-65
2022/01/27 02:52:13;;;;;;;26.30;16.43;;;6.10;99.90;;;;;;5051263;28;20380;-71
2022/01/27 02:54:39;;;;;;;32.83;17.07;;;6.40;99.90;;;;;;5050818;28;20421;-65
2022/01/27 02:57:06;;;;;;;29.42;18.20;;;6.50;99.90;;;;;;5051357;28;20496;-65
2022/01/27 02:59:32;;;;;;;32.53;16.33;;;6.40;99.90;;;;;;5027723;28;20780;-65
2022/01/27 03:01:58;;;;;;;28.30;17.27;;;6.10;99.90;;;;;;5016136;28;20422;-65
2022/01/27 03:04:25;;;;;;;37.67;17.90;;;6.30;99.90;;;;;;5034166;28;20175;-65
2022/01/27 03:06:52;;;;;;;29.37;18.47;;;6.30;99.90;;;;;;5035036;28;20176;-65
2022/01/27 03:09:18;;;;;;;26.20;16.50;;;6.30;99.90;;;;;;5033723;28;20470;-65
2022/01/27 03:11:50;;;;;;;30.40;18.03;;;6.20;99.90;;;;;;5035088;28;20383;-65
2022/01/27 03:14:17;;;;;;;29.40;16.90;;;6.30;99.90;;;;;;5034461;28;20398;-71
2022/01/27 03:16:44;;;;;;;32.67;16.95;;;6.00;99.90;;;;;;5039914;28;20178;-65
2022/01/27 03:19:10;;;;;;;32.75;18.30;;;6.40;99.90;;;;;;5052877;28;20189;-65
2022/01/27 03:21:36;;;;;;;35.77;17.83;;;6.50;99.90;;;;;;5054048;28;20223;-65
2022/01/27 03:24:02;;;;;;;29.67;17.90;;;6.10;99.90;;;;;;5055043;28;20184;-65
2022/01/27 03:26:28;;;;;;;27.70;16.27;;;6.60;99.90;;;;;;5036422;28;20511;-65
2022/01/27 03:28:54;;;;;;;32.80;18.20;;;6.50;99.90;;;;;;5054390;28;20877;-65
2022/01/27 03:31:20;;;;;;;31.00;17.83;;;6.40;99.90;;;;;;5053879;28;20209;-65
2022/01/27 03:33:46;;;;;;;29.80;17.20;;;6.10;99.90;;;;;;5054744;28;20408;-65
2022/01/27 03:36:14;;;;;;;32.93;18.10;;;6.20;99.90;;;;;;5054579;28;20406;-65
2022/01/27 03:38:40;;;;;;;31.23;19.15;;;6.50;99.90;;;;;;5054441;28;20183;-65
2022/01/27 03:41:08;;;;;;;30.80;18.40;;;6.50;99.90;;;;;;5054495;28;20170;-65
2022/01/27 03:43:35;;;;;;;29.10;18.93;;;6.50;99.90;;;;;;5053635;28;20477;-65
2022/01/27 03:46:02;;;;;;;28.90;17.67;;;6.50;99.90;;;;;;5036888;28;20416;-64
2022/01/27 03:48:32;;;;;;;30.90;19.10;;;6.50;99.90;;;;;;5053713;28;20508;-64
2022/01/27 03:50:57;;;;;;;30.55;17.40;;;6.50;99.90;;;;;;5054610;28;20422;-64
2022/01/27 03:53:23;;;;;;;27.47;17.43;;;6.50;99.90;;;;;;5040120;28;20233;-64
2022/01/27 03:55:49;;;;;;;27.10;17.47;;;6.20;99.90;;;;;;5016558;28;20187;-64
2022/01/27 03:58:15;;;;;;;27.20;19.43;;;6.40;99.90;;;;;;5034021;28;20268;-70
2022/01/27 04:00:41;;;;;;;31.40;17.57;;;6.40;99.90;;;;;;5034021;28;20446;-64
2022/01/27 04:03:10;;;;;;;29.77;17.30;;;6.70;99.90;;;;;;5034174;28;20179;-64
2022/01/27 04:05:40;;;;;;;33.00;19.50;;;6.40;99.90;;;;;;5033079;28;20413;-64
2022/01/27 04:08:09;;;;;;;31.98;18.50;;;6.40;99.90;;;;;;5034340;28;20270;-66
2022/01/27 04:10:36;;;;;;;25.93;17.17;;;6.40;99.90;;;;;;5033169;28;20250;-65
2022/01/27 04:13:03;;;;;;;29.65;18.65;;;6.50;99.90;;;;;;5041419;28;20799;-66
2022/01/27 04:15:29;;;;;;;31.13;18.10;;;6.00;99.90;;;;;;5046431;28;20183;-65
2022/01/27 04:17:55;;;;;;;27.83;17.33;;;6.40;99.90;;;;;;5043652;28;20418;-65
2022/01/27 04:20:21;;;;;;;31.93;17.70;;;6.60;99.90;;;;;;5053093;28;20262;-65
2022/01/27 04:22:47;;;;;;;28.08;16.67;;;6.50;99.90;;;;;;5053830;28;20413;-65
2022/01/27 04:25:14;;;;;;;26.43;16.00;;;6.60;99.90;;;;;;5053373;28;20193;-65
2022/01/27 04:27:45;;;;;;;28.80;16.93;;;6.60;99.90;;;;;;5052496;28;20175;-65
2022/01/27 04:30:16;;;;;;;29.40;16.90;;;6.70;99.90;;;;;;5053303;28;20934;-65
2022/01/27 04:32:48;;;;;;;27.50;15.90;;;6.80;99.90;;;;;;5052717;28;20401;-65
2022/01/27 04:35:18;;;;;;;28.33;16.60;;;6.90;99.90;;;;;;5053528;28;20380;-65
2022/01/27 04:37:58;;;;;;;28.33;17.70;;;6.70;99.90;;;;;;5053222;28;20418;-65
2022/01/27 04:40:35;;;;;;;26.03;15.70;;;6.80;99.90;;;;;;5052336;28;20746;-65
2022/01/27 04:45:46;;;;;;;26.23;16.27;;;6.80;99.90;;;;;;5052262;28;20400;-65
2022/01/27 04:48:15;;;;;;;26.77;17.23;;;6.80;99.90;;;;;;5050158;28;20437;-65
2022/01/27 04:50:42;;;;;;;27.97;16.00;;;6.80;99.90;;;;;;5032174;28;21307;-65
2022/01/27 04:53:13;;;;;;;30.50;16.23;;;6.40;99.90;;;;;;5033212;28;20418;-65
2022/01/27 04:55:39;;;;;;;29.00;17.17;;;6.50;99.90;;;;;;5014726;28;20434;-65
2022/01/27 04:58:13;;;;;;;27.10;14.90;;;6.80;99.90;;;;;;5015611;28;20442;-65
2022/01/27 05:00:39;;;;;;;31.87;18.80;;;6.80;99.90;;;;;;5032052;28;20692;-65
2022/01/27 05:03:15;;;;;;;30.10;17.47;;;6.80;99.90;;;;;;5033001;28;20414;-65
2022/01/27 05:05:41;;;;;;;29.93;17.00;;;6.80;99.90;;;;;;5014518;28;21130;-65
2022/01/27 05:08:10;;;;;;;25.30;14.67;;;6.30;99.90;;;;;;5032665;28;20426;-66
2022/01/27 05:10:36;;;;;;;28.57;16.60;;;6.70;99.90;;;;;;5051933;28;20214;-65
2022/01/27 05:13:17;;;;;;;29.00;16.10;;;6.70;99.90;;;;;;5052739;28;20490;-65
2022/01/27 05:15:45;;;;;;;30.73;18.00;;;6.70;99.90;;;;;;5017560;28;21119;-65
2022/01/27 05:18:12;;;;;;;27.13;15.43;;;6.70;99.90;;;;;;5052739;28;20409;-65
2022/01/27 05:20:38;;;;;;;24.03;16.63;;;6.80;99.90;;;;;;5051619;28;20460;-65
2022/01/27 05:23:04;;;;;;;29.30;16.60;;;6.40;99.90;;;;;;5052713;28;20397;-65
2022/01/27 05:25:30;;;;;;;23.07;13.70;;;6.80;99.90;;;;;;5051386;28;20417;-65
2022/01/27 05:27:55;;;;;;;25.50;15.60;;;6.90;99.90;;;;;;5034579;28;20424;-65
2022/01/27 05:30:21;;;;;;;25.57;15.00;;;6.80;99.90;;;;;;5034754;28;20218;-70
2022/01/27 05:32:47;;;;;;;26.43;15.10;;;7.00;99.90;;;;;;5031623;28;20188;-65
2022/01/27 05:35:13;;;;;;;25.20;15.00;;;6.90;99.90;;;;;;5031937;28;20196;-65
2022/01/27 05:37:39;;;;;;;22.80;13.67;;;7.00;99.90;;;;;;5031426;28;20579;-65
2022/01/27 05:40:05;;;;;;;25.63;14.67;;;7.00;99.90;;;;;;5032415;28;20473;-65
2022/01/27 05:42:31;;;;;;;23.10;14.20;;;7.00;99.90;;;;;;5012457;28;20180;-65
2022/01/27 05:44:56;;;;;;;23.30;16.73;;;7.10;99.90;;;;;;5032094;28;20442;-65
2022/01/27 05:47:22;;;;;;;23.27;14.90;;;7.10;99.90;;;;;;5014293;28;20234;-70
2022/01/27 05:49:48;;;;;;;19.67;13.13;;;7.20;99.90;;;;;;5031840;28;20210;-65
2022/01/27 05:52:14;;;;;;;26.10;14.93;;;7.20;99.90;;;;;;5032042;28;20666;-65
2022/01/27 05:54:40;;;;;;;22.30;14.20;;;7.10;99.90;;;;;;5032218;28;20434;-65
2022/01/27 05:57:05;;;;;;;22.50;13.50;;;7.20;99.90;;;;;;5014015;28;20477;-65
2022/01/27 05:59:31;;;;;;;20.23;14.13;;;7.20;99.90;;;;;;5014663;28;20187;-65
2022/01/27 06:01:57;;;;;;;24.63;13.70;;;7.20;99.90;;;;;;5032728;28;20571;-65
2022/01/27 06:04:22;;;;;;;22.93;14.57;;;7.20;99.90;;;;;;5031931;28;20176;-70
2022/01/27 06:06:49;;;;;;;24.83;14.73;;;7.20;99.90;;;;;;5031544;28;20180;-65
2022/01/27 06:09:15;;;;;;;24.13;14.50;;;7.20;99.90;;;;;;5033837;28;20491;-65
2022/01/27 06:11:41;;;;;;;24.53;15.53;;;7.30;99.90;;;;;;5033441;28;20428;-65
2022/01/27 06:14:07;;;;;;;23.27;12.97;;;7.20;99.90;;;;;;5031619;28;20433;-65
2022/01/27 06:16:32;;;;;;;21.67;13.53;;;7.20;99.90;;;;;;5031292;28;20206;-65
2022/01/27 06:18:58;;;;;;;24.43;14.73;;;7.30;99.90;;;;;;5034735;28;20195;-65
2022/01/27 06:21:24;;;;;;;22.17;14.70;;;7.30;99.90;;;;;;5051603;28;20234;-71
2022/01/27 06:23:49;;;;;;;24.00;16.00;;;7.40;99.90;;;;;;5051466;28;20735;-65
2022/01/27 06:26:15;;;;;;;26.10;16.93;;;7.50;99.90;;;;;;5051902;28;20175;-65
2022/01/27 06:28:41;;;;;;;26.07;14.17;;;7.50;99.90;;;;;;5026515;28;20196;-65
2022/01/27 06:31:06;;;;;;;21.17;15.43;;;7.50;99.90;;;;;;5037452;28;20258;-65
2022/01/27 06:33:32;;;;;;;22.87;13.93;;;7.60;99.90;;;;;;5033065;28;20184;-65
2022/01/27 06:35:58;;;;;;;26.43;15.47;;;7.50;99.90;;;;;;5034543;28;20528;-65
2022/01/27 06:38:24;;;;;;;23.80;14.40;;;7.40;99.90;;;;;;5050798;28;20210;-71
2022/01/27 06:40:50;;;;;;;25.23;15.87;;;7.40;99.90;;;;;;5035191;28;20196;-65
2022/01/27 06:43:16;;;;;;;24.33;15.87;;;7.40;99.90;;;;;;5017765;28;20544;-65
2022/01/27 06:45:41;;;;;;;24.23;15.63;;;7.50;99.90;;;;;;5035870;28;20200;-65
2022/01/27 06:48:07;;;;;;;28.00;15.83;;;7.40;99.90;;;;;;5043530;28;20910;-65
2022/01/27 06:50:36;;;;;;;26.73;14.53;;;6.90;99.90;;;;;;5035663;28;20216;-66
2022/01/27 06:53:02;;;;;;;22.07;14.63;;;7.30;99.90;;;;;;5040607;28;20181;-65
2022/01/27 06:55:28;;;;;;;24.60;16.20;;;7.00;99.90;;;;;;5036488;28;20465;-66
2022/01/27 06:57:53;;;;;;;23.13;14.97;;;7.30;99.90;;;;;;5040239;28;20454;-66
2022/01/27 07:00:19;;;;;;;24.27;15.10;;;7.20;99.90;;;;;;5039057;28;20220;-65
2022/01/27 07:02:45;;;;;;;23.17;13.60;;;7.30;99.90;;;;;;5043291;28;20180;-65
2022/01/27 07:05:14;;;;;;;25.03;14.30;;;7.30;99.90;;;;;;5039896;28;20175;-65
2022/01/27 07:07:41;;;;;;;20.10;14.23;;;7.30;99.90;;;;;;5044284;28;20266;-65
2022/01/27 07:10:07;;;;;;;22.47;14.87;;;7.20;99.90;;;;;;5046569;28;20460;-65
2022/01/27 07:12:32;;;;;;;24.13;13.43;;;7.20;99.90;;;;;;5035314;28;20416;-65
2022/01/27 07:14:58;;;;;;;24.93;15.37;;;7.30;99.90;;;;;;5045624;28;20501;-65
2022/01/27 07:17:24;;;;;;;24.63;14.40;;;7.40;99.90;;;;;;5047848;28;20185;-65
2022/01/27 07:19:50;;;;;;;19.83;14.10;;;7.40;99.90;;;;;;5039947;28;20190;-65
2022/01/27 07:22:16;;;;;;;28.43;14.10;;;7.50;99.90;;;;;;5041022;28;20482;-65
2022/01/27 07:24:42;;;;;;;21.67;14.23;;;7.50;99.90;;;;;;5016470;28;20176;-65
2022/01/27 07:27:08;;;;;;;20.60;14.43;;;7.50;99.90;;;;;;5034565;28;20637;-65
2022/01/27 07:29:35;;;;;;;22.97;12.43;;;7.40;99.90;;;;;;5016278;28;20466;-65
2022/01/27 07:32:00;;;;;;;22.37;14.40;;;7.50;99.90;;;;;;5043857;28;20467;-66
2022/01/27 07:34:26;;;;;;;24.03;13.90;;;7.50;99.90;;;;;;5016680;28;20566;-67
2022/01/27 07:36:59;;;;;;;25.27;13.97;;;7.40;99.90;;;;;;5033913;28;20419;-67
2022/01/27 07:39:25;;;;;;;25.07;14.50;;;7.40;99.90;;;;;;5048731;28;20589;-67
2022/01/27 07:41:51;;;;;;;21.07;13.73;;;7.50;99.90;;;;;;5036383;28;20461;-66
2022/01/27 07:44:16;;;;;;;19.63;12.77;;;7.50;99.90;;;;;;5045537;28;20427;-66
2022/01/27 07:46:42;;;;;;;26.43;13.70;;;7.50;99.90;;;;;;5035523;28;20553;-67
2022/01/27 07:49:08;;;;;;;23.37;14.57;;;7.50;99.90;;;;;;5035435;28;20243;-66
2022/01/27 07:51:34;;;;;;;22.43;13.63;;;7.50;99.90;;;;;;5052190;28;20463;-67
2022/01/27 07:54:00;;;;;;;21.80;13.63;;;7.50;99.90;;;;;;5045666;28;20239;-66
2022/01/27 07:56:26;;;;;;;21.60;14.53;;;7.70;99.90;;;;;;5034681;28;20467;-67
2022/01/27 07:58:52;;;;;;;24.90;14.60;;;7.60;99.90;;;;;;5046005;28;20185;-66
2022/01/27 08:01:18;;;;;;;24.63;14.83;;;7.50;99.90;;;;;;5054169;28;20417;-66
2022/01/27 08:03:44;;;;;;;22.13;14.83;;;7.50;99.90;;;;;;5041909;28;20451;-66
2022/01/27 08:06:10;;;;;;;24.77;14.10;;;7.50;99.90;;;;;;5035262;28;20234;-67
2022/01/27 08:08:36;;;;;;;21.80;14.27;;;7.90;99.90;;;;;;5034085;28;20573;-69
2022/01/27 08:11:02;;;;;;;20.77;13.13;;;8.20;99.90;;;;;;5034906;28;20372;-67
2022/01/27 08:13:28;;;;;;;22.07;12.30;;;8.90;99.90;;;;;;5049285;28;20473;-67
2022/01/27 08:15:54;;;;;;;21.97;13.97;;;9.40;99.90;;;;;;5050507;28;20420;-67
2022/01/27 08:18:20;;;;;;;22.23;16.40;;;9.80;99.90;;;;;;5041546;28;20421;-66
2022/01/27 08:20:47;;;;;;;22.20;13.83;;;10.10;99.90;;;;;;5037166;28;20967;-67
2022/01/27 08:23:14;;;;;;;20.70;14.40;;;10.40;99.90;;;;;;5038050;28;20448;-67
2022/01/27 08:25:41;;;;;;;19.13;13.97;;;10.60;99.90;;;;;;5053784;28;20418;-67
2022/01/27 08:28:18;;;;;;;20.20;14.53;;;10.90;99.90;;;;;;5053468;28;20423;-67
2022/01/27 08:30:48;;;;;;;21.00;14.83;;;11.00;99.90;;;;;;5044118;28;20555;-67
2022/01/27 08:33:16;;;;;;;22.03;14.70;;;11.00;99.90;;;;;;5033908;28;20434;-67
2022/01/27 08:35:42;;;;;;;16.93;12.47;;;11.20;99.90;;;;;;5033555;28;20413;-67
2022/01/27 08:38:08;;;;;;;21.53;14.40;;;11.00;99.90;;;;;;5040343;28;20438;-67
2022/01/27 08:40:34;;;;;;;20.17;13.93;;;10.90;99.90;;;;;;5035719;28;20700;-69
2022/01/27 08:43:00;;;;;;;23.00;15.27;;;11.10;99.90;;;;;;5033722;28;20448;-67
2022/01/27 08:45:26;;;;;;;18.70;14.53;;;11.10;99.90;;;;;;5041185;28;20413;-66
2022/01/27 08:47:54;;;;;;;23.30;15.37;;;10.80;98.90;;;;;;5052663;28;20409;-66
2022/01/27 08:50:22;;;;;;;19.40;15.77;;;10.20;99.90;;;;;;5036779;28;20561;-66
2022/01/27 08:52:48;;;;;;;20.07;15.20;;;9.90;99.90;;;;;;5023241;28;20440;-66
2022/01/27 08:55:16;;;;;;;23.63;14.10;;;9.60;99.90;;;;;;5051733;28;20436;-67
2022/01/27 08:57:42;;;;;;;21.23;15.07;;;9.30;99.90;;;;;;5043944;28;20417;-66
2022/01/27 09:00:10;;;;;;;20.30;15.50;;;9.00;99.90;;;;;;5033081;28;20410;-66
2022/01/27 09:02:36;;;;;;;19.53;15.30;;;8.80;99.90;;;;;;5044850;28;20409;-67
2022/01/27 09:05:03;;;;;;;19.93;16.07;;;8.70;99.90;;;;;;5053041;28;20412;-66
2022/01/27 09:07:28;;;;;;;20.17;13.77;;;8.50;99.90;;;;;;5053239;28;20197;-67
2022/01/27 09:09:54;;;;;;;21.37;14.10;;;8.40;99.90;;;;;;5052083;28;20455;-67
2022/01/27 09:12:20;;;;;;;15.93;14.20;;;8.30;99.90;;;;;;5050893;28;20243;-67
2022/01/27 09:14:46;;;;;;;22.00;16.93;;;8.30;99.90;;;;;;5039814;28;20208;-67
2022/01/27 09:17:13;;;;;;;17.50;13.03;;;8.20;99.90;;;;;;5046056;28;20937;-69
2022/01/27 09:19:41;;;;;;;19.30;13.10;;;8.20;99.90;;;;;;5014768;28;20505;-67
2022/01/27 09:22:12;;;;;;;17.73;12.90;;;8.00;99.90;;;;;;5034957;28;21059;-68
2022/01/27 09:24:49;;;;;;;18.53;14.03;;;8.00;99.90;;;;;;5052617;28;20411;-66
2022/01/27 09:27:16;;;;;;;17.47;13.80;;;8.00;99.90;;;;;;5035317;28;20502;-66
2022/01/27 09:29:42;;;;;;;16.60;12.30;;;7.90;99.90;;;;;;5052358;28;20458;-67
2022/01/27 09:32:09;;;;;;;15.20;11.80;;;7.80;99.90;;;;;;5052462;28;20407;-67
2022/01/27 09:34:35;;;;;;;15.53;11.27;;;7.80;99.90;;;;;;5052160;28;20590;-73
2022/01/27 09:37:02;;;;;;;15.83;11.90;;;7.80;99.90;;;;;;5052297;28;20400;-67
2022/01/27 09:39:29;;;;;;;15.40;11.50;;;7.80;99.90;;;;;;5052672;28;20419;-67
2022/01/27 09:41:57;;;;;;;15.20;11.97;;;7.80;99.90;;;;;;5052009;28;20422;-66
2022/01/27 09:44:28;;;;;;;12.30;10.40;;;7.90;99.90;;;;;;5052938;28;20419;-67
2022/01/27 09:46:57;;;;;;;14.87;9.63;;;7.80;99.90;;;;;;5052086;28;20399;-66
2022/01/27 09:49:33;;;;;;;13.33;9.87;;;7.90;99.90;;;;;;5018305;28;20862;-66
2022/01/27 09:52:00;;;;;;;11.87;9.10;;;7.80;99.90;;;;;;5052040;28;20419;-67
2022/01/27 09:54:25;;;;;;;11.17;10.07;;;7.80;99.90;;;;;;5052405;28;20415;-66
2022/01/27 09:56:53;;;;;;;10.70;8.30;;;7.80;99.90;;;;;;5051883;28;20430;-67
2022/01/27 09:59:21;;;;;;;10.63;9.63;;;7.80;99.90;;;;;;5052376;28;20193;-66
2022/01/27 10:01:53;;;;;;;11.40;8.87;;;7.90;99.90;;;;;;5051891;28;20440;-66
2022/01/27 10:04:19;;;;;;;11.10;9.23;;;8.00;99.90;;;;;;5052657;28;20758;-67
2022/01/27 10:06:45;;;;;;;10.60;8.87;;;8.00;99.90;;;;;;5051761;28;20420;-66
2022/01/27 10:09:22;;;;;;;9.30;8.30;;;8.10;99.90;;;;;;5052285;28;20228;-66
2022/01/27 10:11:49;;;;;;;8.97;8.10;;;8.10;99.90;;;;;;5054292;28;20415;-67
2022/01/27 10:14:20;;;;;;;10.27;8.00;;;8.20;99.90;;;;;;5056517;28;20443;-67
2022/01/27 10:16:49;;;;;;;8.63;6.37;;;8.20;99.90;;;;;;5038222;28;20750;-67
2022/01/27 10:19:15;;;;;;;9.63;8.63;;;8.20;99.90;;;;;;5056323;28;20507;-67
2022/01/27 10:21:41;;;;;;;8.60;7.90;;;8.10;99.90;;;;;;5055793;28;20446;-67
2022/01/27 10:24:24;;;;;;;7.13;6.07;;;8.10;99.90;;;;;;5056352;28;20408;-66
2022/01/27 10:27:18;;;;;;;7.57;6.40;;;8.10;99.90;;;;;;5037992;28;20180;-66
2022/01/27 10:32:39;;;;;;;7.10;6.40;;;8.10;99.90;;;;;;5056242;28;20435;-67
2022/01/27 10:35:05;;;;;;;8.50;7.60;;;8.00;99.90;;;;;;5055832;28;20832;-66
2022/01/27 10:37:53;;;;;;;8.20;6.80;;;8.10;99.90;;;;;;5056027;28;20526;-66
2022/01/27 10:40:32;;;;;;;7.80;7.00;;;8.00;99.90;;;;;;5056058;28;20420;-67
2022/01/27 10:43:07;;;;;;;6.80;6.10;;;8.10;99.90;;;;;;5055339;28;20408;-66
2022/01/27 10:45:35;;;;;;;8.50;6.73;;;8.00;99.90;;;;;;5055726;28;20419;-66
2022/01/27 10:48:24;;;;;;;6.87;6.27;;;8.00;99.90;;;;;;5055265;28;20997;-67
2022/01/27 10:50:59;;;;;;;6.67;5.93;;;8.10;99.90;;;;;;5055240;28;20486;-67
2022/01/27 10:54:02;;;;;;;6.80;5.60;;;8.10;99.90;;;;;;5055685;28;21005;-66
2022/01/27 10:56:30;;;;;;;10.40;7.33;;;8.10;99.90;;;;;;5055723;28;20408;-67
2022/01/27 10:58:58;;;;;;;5.37;4.87;;;8.20;99.90;;;;;;5037027;28;20420;-67
2022/01/27 11:01:32;;;;;;;5.50;4.90;;;8.30;99.90;;;;;;5055861;28;20929;-67
2022/01/27 11:04:03;;;;;;;6.40;5.73;;;8.40;99.90;;;;;;5054801;28;20392;-67
2022/01/27 11:06:31;;;;;;;6.07;5.67;;;8.30;99.90;;;;;;5055570;28;20400;-67
2022/01/27 11:08:59;;;;;;;6.13;5.50;;;8.30;99.90;;;;;;5037073;28;20424;-67
2022/01/27 11:11:26;;;;;;;5.73;5.20;;;8.40;99.90;;;;;;5055468;28;20412;-66
2022/01/27 11:13:54;;;;;;;5.53;4.93;;;8.30;99.90;;;;;;5054351;28;20445;-67
2022/01/27 11:16:29;;;;;;;6.93;6.30;;;8.30;99.90;;;;;;5037180;28;20407;-66
2022/01/27 11:19:10;;;;;;;8.10;6.10;;;8.40;99.90;;;;;;5054566;28;20403;-67
2022/01/27 11:21:39;;;;;;;5.67;5.17;;;8.50;99.90;;;;;;5055042;28;20451;-67
2022/01/27 11:24:14;;;;;;;5.97;5.47;;;8.50;99.90;;;;;;5054670;28;20435;-67
2022/01/27 11:26:43;;;;;;;5.73;5.10;;;8.40;99.90;;;;;;5037381;28;20428;-73
2022/01/27 11:29:10;;;;;;;5.53;5.13;;;8.50;99.90;;;;;;5055005;28;20485;-67
2022/01/27 11:32:05;;;;;;;5.67;5.17;;;8.50;99.90;;;;;;5037288;28;20405;-66
2022/01/27 11:35:15;;;;;;;6.40;5.60;;;8.50;99.90;;;;;;5055171;28;20422;-66
2022/01/27 11:37:41;;;;;;;6.70;6.10;;;8.40;99.90;;;;;;5008381;28;20473;-66
2022/01/27 11:40:11;;;;;;;7.70;5.53;;;8.40;99.90;;;;;;5054927;28;20427;-66
2022/01/27 11:42:40;;;;;;;7.33;6.63;;;8.30;99.90;;;;;;5054938;28;20439;-66
2022/01/27 11:45:21;;;;;;;6.13;5.60;;;8.30;99.90;;;;;;5054124;28;20450;-67
2022/01/27 11:47:51;;;;;;;6.00;5.40;;;8.40;99.90;;;;;;5053685;28;20412;-67
2022/01/27 11:50:48;;;;;;;5.30;4.80;;;8.40;99.90;;;;;;5054473;28;20451;-67
2022/01/27 11:53:29;;;;;;;7.07;6.47;;;8.40;99.90;;;;;;5054776;28;20412;-67
2022/01/27 11:55:58;;;;;;;5.50;5.00;;;8.30;99.90;;;;;;5053778;28;20745;-66
2022/01/27 11:58:25;;;;;;;6.27;5.70;;;8.40;99.90;;;;;;5054545;28;20422;-67
2022/01/27 12:01:01;;;;;;;8.13;6.77;;;8.50;99.90;;;;;;5054239;28;20427;-67
2022/01/27 12:03:27;;;;;;;5.97;5.37;;;8.50;99.90;;;;;;5054474;28;20404;-66
2022/01/27 12:06:20;;;;;;;7.93;7.20;;;8.50;99.90;;;;;;5053862;28;20400;-68
2022/01/27 12:08:47;;;;;;;7.27;6.57;;;8.50;99.90;;;;;;5053364;28;20264;-68
2022/01/27 12:11:49;;;;;;;6.90;6.30;;;8.60;99.90;;;;;;5054256;28;20475;-67
2022/01/27 12:14:19;;;;;;;7.53;6.83;;;8.50;99.90;;;;;;5054373;28;20396;-68
2022/01/27 12:17:04;;;;;;;7.00;6.30;;;8.50;99.90;;;;;;5053319;28;20410;-69
2022/01/27 12:19:46;;;;;;;6.60;5.63;;;8.60;99.90;;;;;;5053792;28;20455;-68
2022/01/27 12:22:14;;;;;;;6.77;6.07;;;8.60;99.90;;;;;;5054374;28;20495;-67
2022/01/27 12:25:00;;;;;;;7.20;6.50;;;8.60;99.90;;;;;;5054167;28;20469;-68
2022/01/27 12:27:27;;;;;;;10.80;8.20;;;8.70;99.90;;;;;;5054044;28;20459;-68
2022/01/27 12:29:56;;;;;;;10.07;9.00;;;8.70;99.90;;;;;;5053209;28;20976;-68
2022/01/27 12:32:32;;;;;;;7.63;6.97;;;8.80;99.90;;;;;;5053696;28;20453;-67
2022/01/27 12:35:01;;;;;;;7.63;6.67;;;8.80;99.90;;;;;;5052802;28;20491;-68
2022/01/27 12:37:47;;;;;;;7.40;6.10;;;8.80;99.90;;;;;;5053836;28;20430;-68
2022/01/27 12:40:17;;;;;;;7.77;7.07;;;8.80;99.90;;;;;;5053884;28;20405;-67
2022/01/27 12:42:59;;;;;;;8.33;7.53;;;8.80;99.90;;;;;;5053842;28;20419;-67
2022/01/27 12:45:29;;;;;;;10.07;8.93;;;8.80;99.90;;;;;;5053905;28;20404;-67
2022/01/27 12:47:57;;;;;;;7.87;7.20;;;8.80;99.90;;;;;;5053061;28;20455;-67
2022/01/27 12:50:24;;;;;;;8.13;6.77;;;8.80;99.90;;;;;;5053701;28;20504;-67
2022/01/27 12:52:53;;;;;;;8.50;7.90;;;8.80;99.90;;;;;;5052915;28;20461;-67
2022/01/27 12:55:22;;;;;;;6.87;6.37;;;8.80;99.90;;;;;;5053256;28;20424;-67
2022/01/27 12:57:58;;;;;;;6.60;6.00;;;8.90;99.90;;;;;;5052976;28;20503;-72
2022/01/27 13:00:25;;;;;;;7.83;7.13;;;8.90;99.90;;;;;;5053225;28;20419;-67
2022/01/27 13:02:57;;;;;;;6.97;6.40;;;8.90;99.90;;;;;;5018395;28;20892;-67
2022/01/27 13:05:23;;;;;;;6.50;5.90;;;8.90;99.90;;;;;;5053337;28;20729;-67
2022/01/27 13:07:48;;;;;;;7.00;6.40;;;8.90;99.90;;;;;;5052922;28;20416;-68
2022/01/27 13:10:18;;;;;;;5.80;5.40;;;9.00;99.90;;;;;;5053243;28;20216;-66
2022/01/27 13:12:50;;;;;;;6.70;6.10;;;8.90;99.90;;;;;;5053114;28;20186;-66
2022/01/27 13:15:20;;;;;;;6.23;5.63;;;8.90;99.90;;;;;;5053127;28;20393;-66
2022/01/27 13:17:50;;;;;;;6.10;5.60;;;8.90;99.90;;;;;;5053251;28;20482;-66
2022/01/27 13:20:42;;;;;;;6.33;5.83;;;8.90;99.90;;;;;;5053363;28;20396;-68
2022/01/27 13:23:16;;;;;;;6.80;6.20;;;9.00;99.90;;;;;;5052839;28;20400;-67
2022/01/27 13:25:46;;;;;;;7.67;7.07;;;9.00;99.90;;;;;;5053195;28;20393;-68
2022/01/27 13:28:20;;;;;;;6.53;6.03;;;9.00;99.90;;;;;;5052279;28;20447;-67
2022/01/27 13:30:49;;;;;;;6.70;6.00;;;9.00;99.90;;;;;;5052612;28;20453;-67
2022/01/27 13:33:16;;;;;;;8.07;7.27;;;9.00;99.90;;;;;;5052520;28;20424;-67
2022/01/27 13:35:43;;;;;;;7.20;6.50;;;9.00;99.90;;;;;;5052961;28;20783;-67
2022/01/27 13:38:23;;;;;;;7.07;6.57;;;9.00;99.90;;;;;;5051947;28;20980;-67